sensor_id;sensor_type;location;lat;lon;timestamp;temperature;humidity
23147;DHT22;11742;53.532;-1.478;2023-01-26T00:01:21;9.30;89.90
23147;DHT22;11742;53.532;-1.478;2023-01-26T00:03:48;9.30;89.90
23147;DHT22;11742;53.532;-1.478;2023-01-26T00:06:14;9.30;89.90
23147;DHT22;11742;53.532;-1.478;2023-01-26T00:08:44;9.20;89.90
23147;DHT22;11742;53.532;-1.478;2023-01-26T00:11:11;9.20;89.90
23147;DHT22;11742;53.532;-1.478;2023-01-26T00:13:37;9.20;89.90
23147;DHT22;11742;53.532;-1.478;2023-01-26T00:16:03;9.20;89.90
23147;DHT22;11742;53.532;-1.478;2023-01-26T00:18:29;9.20;89.90
23147;DHT22;11742;53.532;-1.478;2023-01-26T00:20:58;9.20;89.90
23147;DHT22;11742;53.532;-1.478;2023-01-26T00:23:24;9.20;89.90
23147;DHT22;11742;53.532;-1.478;2023-01-26T00:25:49;9.10;89.80
23147;DHT22;11742;53.532;-1.478;2023-01-26T00:28:15;9.10;89.80
23147;DHT22;11742;53.532;-1.478;2023-01-26T00:30:41;9.10;89.90
23147;DHT22;11742;53.532;-1.478;2023-01-26T00:33:06;9.10;89.90
23147;DHT22;11742;53.532;-1.478;2023-01-26T00:35:32;9.10;89.90
23147;DHT22;11742;53.532;-1.478;2023-01-26T00:37:57;9.10;89.90
23147;DHT22;11742;53.532;-1.478;2023-01-26T00:40:23;9.10;89.80
23147;DHT22;11742;53.532;-1.478;2023-01-26T00:42:48;9.00;89.80
23147;DHT22;11742;53.532;-1.478;2023-01-26T00:45:14;9.00;89.80
23147;DHT22;11742;53.532;-1.478;2023-01-26T00:47:39;9.00;89.80
23147;DHT22;11742;53.532;-1.478;2023-01-26T00:50:05;9.00;89.80
23147;DHT22;11742;53.532;-1.478;2023-01-26T00:52:31;9.00;89.80
23147;DHT22;11742;53.532;-1.478;2023-01-26T00:54:56;9.00;89.80
23147;DHT22;11742;53.532;-1.478;2023-01-26T00:57:22;9.00;89.80
23147;DHT22;11742;53.532;-1.478;2023-01-26T00:59:47;8.90;89.70
23147;DHT22;11742;53.532;-1.478;2023-01-26T01:02:16;8.90;89.70
23147;DHT22;11742;53.532;-1.478;2023-01-26T01:04:41;8.90;89.70
23147;DHT22;11742;53.532;-1.478;2023-01-26T01:07:07;8.90;89.70
23147;DHT22;11742;53.532;-1.478;2023-01-26T01:09:32;8.90;89.70
23147;DHT22;11742;53.532;-1.478;2023-01-26T01:11:58;8.80;89.70
23147;DHT22;11742;53.532;-1.478;2023-01-26T01:14:24;8.90;89.70
23147;DHT22;11742;53.532;-1.478;2023-01-26T01:16:49;8.80;89.60
23147;DHT22;11742;53.532;-1.478;2023-01-26T01:19:15;8.80;89.70
23147;DHT22;11742;53.532;-1.478;2023-01-26T01:21:41;8.80;89.70
23147;DHT22;11742;53.532;-1.478;2023-01-26T01:24:07;8.80;89.70
23147;DHT22;11742;53.532;-1.478;2023-01-26T01:26:33;8.80;89.70
23147;DHT22;11742;53.532;-1.478;2023-01-26T01:28:58;8.80;89.70
23147;DHT22;11742;53.532;-1.478;2023-01-26T01:31:24;8.80;89.70
23147;DHT22;11742;53.532;-1.478;2023-01-26T01:33:51;8.70;89.60
23147;DHT22;11742;53.532;-1.478;2023-01-26T01:36:16;8.70;89.60
23147;DHT22;11742;53.532;-1.478;2023-01-26T01:38:42;8.70;89.60
23147;DHT22;11742;53.532;-1.478;2023-01-26T01:41:09;8.70;89.60
23147;DHT22;11742;53.532;-1.478;2023-01-26T01:43:35;8.70;89.60
23147;DHT22;11742;53.532;-1.478;2023-01-26T01:46:01;8.70;89.60
23147;DHT22;11742;53.532;-1.478;2023-01-26T01:48:29;8.70;89.60
23147;DHT22;11742;53.532;-1.478;2023-01-26T01:50:59;8.60;89.50
23147;DHT22;11742;53.532;-1.478;2023-01-26T01:53:28;8.60;89.50
23147;DHT22;11742;53.532;-1.478;2023-01-26T01:55:56;8.60;89.60
23147;DHT22;11742;53.532;-1.478;2023-01-26T01:58:23;8.60;89.50
23147;DHT22;11742;53.532;-1.478;2023-01-26T02:00:48;8.60;89.50
23147;DHT22;11742;53.532;-1.478;2023-01-26T02:03:14;8.60;89.50
23147;DHT22;11742;53.532;-1.478;2023-01-26T02:06:05;8.60;89.50
23147;DHT22;11742;53.532;-1.478;2023-01-26T02:08:35;8.50;89.50
23147;DHT22;11742;53.532;-1.478;2023-01-26T02:11:05;8.50;89.50
23147;DHT22;11742;53.532;-1.478;2023-01-26T02:13:32;8.50;89.50
23147;DHT22;11742;53.532;-1.478;2023-01-26T02:15:58;8.50;89.50
23147;DHT22;11742;53.532;-1.478;2023-01-26T02:18:24;8.50;89.60
23147;DHT22;11742;53.532;-1.478;2023-01-26T02:20:51;8.50;89.70
23147;DHT22;11742;53.532;-1.478;2023-01-26T02:28:24;8.40;89.70
23147;DHT22;11742;53.532;-1.478;2023-01-26T02:30:50;8.40;89.70
23147;DHT22;11742;53.532;-1.478;2023-01-26T02:35:44;8.40;89.60
23147;DHT22;11742;53.532;-1.478;2023-01-26T02:38:10;8.40;89.60
23147;DHT22;11742;53.532;-1.478;2023-01-26T02:43:04;8.40;89.70
23147;DHT22;11742;53.532;-1.478;2023-01-26T02:45:30;8.40;89.80
23147;DHT22;11742;53.532;-1.478;2023-01-26T02:47:56;8.40;89.90
23147;DHT22;11742;53.532;-1.478;2023-01-26T02:50:24;8.40;90.00
23147;DHT22;11742;53.532;-1.478;2023-01-26T02:52:49;8.40;90.00
23147;DHT22;11742;53.532;-1.478;2023-01-26T02:55:15;8.30;90.00
23147;DHT22;11742;53.532;-1.478;2023-01-26T02:57:46;8.30;90.00
23147;DHT22;11742;53.532;-1.478;2023-01-26T03:00:13;8.30;90.00
23147;DHT22;11742;53.532;-1.478;2023-01-26T03:02:40;8.30;90.00
23147;DHT22;11742;53.532;-1.478;2023-01-26T03:05:06;8.30;90.00
23147;DHT22;11742;53.532;-1.478;2023-01-26T03:07:31;8.30;90.10
23147;DHT22;11742;53.532;-1.478;2023-01-26T03:09:57;8.30;90.10
23147;DHT22;11742;53.532;-1.478;2023-01-26T03:12:26;8.30;90.10
23147;DHT22;11742;53.532;-1.478;2023-01-26T03:14:51;8.30;90.10
23147;DHT22;11742;53.532;-1.478;2023-01-26T03:17:36;8.30;90.50
23147;DHT22;11742;53.532;-1.478;2023-01-26T03:20:02;8.30;90.20
23147;DHT22;11742;53.532;-1.478;2023-01-26T03:22:46;8.30;90.20
23147;DHT22;11742;53.532;-1.478;2023-01-26T03:25:38;8.30;90.20
23147;DHT22;11742;53.532;-1.478;2023-01-26T03:28:22;8.30;90.20
23147;DHT22;11742;53.532;-1.478;2023-01-26T03:30:48;8.30;90.20
23147;DHT22;11742;53.532;-1.478;2023-01-26T03:33:17;8.30;90.20
23147;DHT22;11742;53.532;-1.478;2023-01-26T03:35:43;8.30;90.20
23147;DHT22;11742;53.532;-1.478;2023-01-26T03:38:08;8.30;90.20
23147;DHT22;11742;53.532;-1.478;2023-01-26T03:40:34;8.30;90.20
23147;DHT22;11742;53.532;-1.478;2023-01-26T03:43:18;8.30;90.20
23147;DHT22;11742;53.532;-1.478;2023-01-26T03:46:03;8.30;90.20
23147;DHT22;11742;53.532;-1.478;2023-01-26T03:48:47;8.30;90.20
23147;DHT22;11742;53.532;-1.478;2023-01-26T03:51:31;8.30;90.20
23147;DHT22;11742;53.532;-1.478;2023-01-26T03:54:15;8.30;90.20
23147;DHT22;11742;53.532;-1.478;2023-01-26T03:56:59;8.30;90.30
23147;DHT22;11742;53.532;-1.478;2023-01-26T03:59:24;8.30;90.30
23147;DHT22;11742;53.532;-1.478;2023-01-26T04:02:05;8.30;90.30
23147;DHT22;11742;53.532;-1.478;2023-01-26T04:04:50;8.30;90.30
23147;DHT22;11742;53.532;-1.478;2023-01-26T04:07:35;8.30;90.30
23147;DHT22;11742;53.532;-1.478;2023-01-26T04:10:19;8.30;90.30
23147;DHT22;11742;53.532;-1.478;2023-01-26T04:12:44;8.30;90.30
23147;DHT22;11742;53.532;-1.478;2023-01-26T04:15:10;8.30;90.30
23147;DHT22;11742;53.532;-1.478;2023-01-26T04:17:54;8.40;90.30
23147;DHT22;11742;53.532;-1.478;2023-01-26T04:20:38;8.30;90.40
23147;DHT22;11742;53.532;-1.478;2023-01-26T04:23:22;8.40;90.30
23147;DHT22;11742;53.532;-1.478;2023-01-26T04:25:48;8.30;90.30
23147;DHT22;11742;53.532;-1.478;2023-01-26T04:28:13;8.40;90.40
23147;DHT22;11742;53.532;-1.478;2023-01-26T04:30:39;8.30;90.30
23147;DHT22;11742;53.532;-1.478;2023-01-26T04:33:04;8.40;90.80
23147;DHT22;11742;53.532;-1.478;2023-01-26T04:35:30;8.40;90.40
23147;DHT22;11742;53.532;-1.478;2023-01-26T04:37:56;8.40;90.40
23147;DHT22;11742;53.532;-1.478;2023-01-26T04:40:21;8.40;90.40
23147;DHT22;11742;53.532;-1.478;2023-01-26T04:42:47;8.30;90.40
23147;DHT22;11742;53.532;-1.478;2023-01-26T04:45:12;8.40;90.40
23147;DHT22;11742;53.532;-1.478;2023-01-26T04:47:38;8.40;90.40
23147;DHT22;11742;53.532;-1.478;2023-01-26T04:50:04;8.40;90.40
23147;DHT22;11742;53.532;-1.478;2023-01-26T04:52:29;8.40;90.40
23147;DHT22;11742;53.532;-1.478;2023-01-26T04:54:55;8.40;90.40
23147;DHT22;11742;53.532;-1.478;2023-01-26T04:57:20;8.40;90.40
23147;DHT22;11742;53.532;-1.478;2023-01-26T04:59:47;8.40;90.40
23147;DHT22;11742;53.532;-1.478;2023-01-26T05:02:13;8.40;90.40
23147;DHT22;11742;53.532;-1.478;2023-01-26T05:04:41;8.40;90.40
23147;DHT22;11742;53.532;-1.478;2023-01-26T05:07:07;8.40;90.40
23147;DHT22;11742;53.532;-1.478;2023-01-26T05:09:32;8.40;90.50
23147;DHT22;11742;53.532;-1.478;2023-01-26T05:11:58;8.40;90.50
23147;DHT22;11742;53.532;-1.478;2023-01-26T05:14:43;8.40;90.50
23147;DHT22;11742;53.532;-1.478;2023-01-26T05:17:09;8.40;90.50
23147;DHT22;11742;53.532;-1.478;2023-01-26T05:19:34;8.40;90.50
23147;DHT22;11742;53.532;-1.478;2023-01-26T05:22:00;8.40;90.50
23147;DHT22;11742;53.532;-1.478;2023-01-26T05:24:25;8.40;90.50
23147;DHT22;11742;53.532;-1.478;2023-01-26T05:26:51;8.40;90.50
23147;DHT22;11742;53.532;-1.478;2023-01-26T05:29:36;8.40;90.50
23147;DHT22;11742;53.532;-1.478;2023-01-26T05:32:02;8.40;90.50
23147;DHT22;11742;53.532;-1.478;2023-01-26T05:34:28;8.40;90.50
23147;DHT22;11742;53.532;-1.478;2023-01-26T05:36:53;8.40;90.50
23147;DHT22;11742;53.532;-1.478;2023-01-26T05:39:19;8.50;90.50
23147;DHT22;11742;53.532;-1.478;2023-01-26T05:41:44;8.50;90.50
23147;DHT22;11742;53.532;-1.478;2023-01-26T05:44:10;8.50;90.50
23147;DHT22;11742;53.532;-1.478;2023-01-26T05:46:35;8.50;90.50
23147;DHT22;11742;53.532;-1.478;2023-01-26T05:49:01;8.50;90.50
23147;DHT22;11742;53.532;-1.478;2023-01-26T05:51:27;8.50;90.50
23147;DHT22;11742;53.532;-1.478;2023-01-26T05:53:53;8.50;90.60
23147;DHT22;11742;53.532;-1.478;2023-01-26T05:56:18;8.50;90.60
23147;DHT22;11742;53.532;-1.478;2023-01-26T05:58:44;8.50;90.60
23147;DHT22;11742;53.532;-1.478;2023-01-26T06:01:09;8.50;90.60
23147;DHT22;11742;53.532;-1.478;2023-01-26T06:03:35;8.50;90.60
23147;DHT22;11742;53.532;-1.478;2023-01-26T06:06:01;8.50;90.60
23147;DHT22;11742;53.532;-1.478;2023-01-26T06:08:26;8.50;90.60
23147;DHT22;11742;53.532;-1.478;2023-01-26T06:10:57;8.50;90.60
23147;DHT22;11742;53.532;-1.478;2023-01-26T06:13:22;8.50;90.60
23147;DHT22;11742;53.532;-1.478;2023-01-26T06:15:48;8.60;90.70
23147;DHT22;11742;53.532;-1.478;2023-01-26T06:18:13;8.50;90.70
23147;DHT22;11742;53.532;-1.478;2023-01-26T06:20:39;8.50;90.70
23147;DHT22;11742;53.532;-1.478;2023-01-26T06:23:04;8.50;90.70
23147;DHT22;11742;53.532;-1.478;2023-01-26T06:25:31;8.60;90.70
23147;DHT22;11742;53.532;-1.478;2023-01-26T06:27:57;8.60;90.70
23147;DHT22;11742;53.532;-1.478;2023-01-26T06:30:23;8.60;90.70
23147;DHT22;11742;53.532;-1.478;2023-01-26T06:32:48;8.60;90.70
23147;DHT22;11742;53.532;-1.478;2023-01-26T06:35:14;8.60;90.70
23147;DHT22;11742;53.532;-1.478;2023-01-26T06:37:39;8.60;90.70
23147;DHT22;11742;53.532;-1.478;2023-01-26T06:40:05;8.60;90.70
23147;DHT22;11742;53.532;-1.478;2023-01-26T06:42:31;8.60;90.70
23147;DHT22;11742;53.532;-1.478;2023-01-26T06:44:56;8.60;90.80
23147;DHT22;11742;53.532;-1.478;2023-01-26T06:47:23;8.60;90.80
23147;DHT22;11742;53.532;-1.478;2023-01-26T06:49:48;8.60;90.80
23147;DHT22;11742;53.532;-1.478;2023-01-26T06:52:30;8.60;90.80
23147;DHT22;11742;53.532;-1.478;2023-01-26T06:54:57;8.60;90.80
23147;DHT22;11742;53.532;-1.478;2023-01-26T06:57:23;8.60;90.80
23147;DHT22;11742;53.532;-1.478;2023-01-26T06:59:48;8.70;90.80
23147;DHT22;11742;53.532;-1.478;2023-01-26T07:02:18;8.60;90.80
23147;DHT22;11742;53.532;-1.478;2023-01-26T07:04:44;8.70;90.80
23147;DHT22;11742;53.532;-1.478;2023-01-26T07:07:10;8.70;90.80
23147;DHT22;11742;53.532;-1.478;2023-01-26T07:09:36;8.70;90.80
23147;DHT22;11742;53.532;-1.478;2023-01-26T07:12:01;8.70;90.90
23147;DHT22;11742;53.532;-1.478;2023-01-26T07:14:27;8.70;90.80
23147;DHT22;11742;53.532;-1.478;2023-01-26T07:16:52;8.70;90.80
23147;DHT22;11742;53.532;-1.478;2023-01-26T07:19:18;8.70;90.90
23147;DHT22;11742;53.532;-1.478;2023-01-26T07:21:43;8.70;90.80
23147;DHT22;11742;53.532;-1.478;2023-01-26T07:24:09;8.70;90.80
23147;DHT22;11742;53.532;-1.478;2023-01-26T07:26:35;8.70;90.80
23147;DHT22;11742;53.532;-1.478;2023-01-26T07:29:00;8.70;90.80
23147;DHT22;11742;53.532;-1.478;2023-01-26T07:31:26;8.70;90.80
23147;DHT22;11742;53.532;-1.478;2023-01-26T07:33:51;8.70;90.80
23147;DHT22;11742;53.532;-1.478;2023-01-26T07:36:17;8.70;90.90
23147;DHT22;11742;53.532;-1.478;2023-01-26T07:38:42;8.70;90.90
23147;DHT22;11742;53.532;-1.478;2023-01-26T07:41:10;8.70;90.90
23147;DHT22;11742;53.532;-1.478;2023-01-26T07:43:36;8.70;90.90
23147;DHT22;11742;53.532;-1.478;2023-01-26T07:46:02;8.70;90.90
23147;DHT22;11742;53.532;-1.478;2023-01-26T07:48:28;8.70;90.90
23147;DHT22;11742;53.532;-1.478;2023-01-26T07:50:57;8.80;90.90
23147;DHT22;11742;53.532;-1.478;2023-01-26T07:53:24;8.80;90.90
23147;DHT22;11742;53.532;-1.478;2023-01-26T07:55:52;8.80;90.90
23147;DHT22;11742;53.532;-1.478;2023-01-26T07:58:17;8.80;90.90
23147;DHT22;11742;53.532;-1.478;2023-01-26T08:00:43;8.80;90.90
23147;DHT22;11742;53.532;-1.478;2023-01-26T08:03:11;8.80;90.90
23147;DHT22;11742;53.532;-1.478;2023-01-26T08:05:37;8.80;90.90
23147;DHT22;11742;53.532;-1.478;2023-01-26T08:08:03;8.80;90.90
23147;DHT22;11742;53.532;-1.478;2023-01-26T08:10:28;8.80;90.90
23147;DHT22;11742;53.532;-1.478;2023-01-26T08:13:00;8.80;90.90
23147;DHT22;11742;53.532;-1.478;2023-01-26T08:15:26;8.80;91.00
23147;DHT22;11742;53.532;-1.478;2023-01-26T08:17:52;8.80;91.00
23147;DHT22;11742;53.532;-1.478;2023-01-26T08:20:17;8.80;91.00
23147;DHT22;11742;53.532;-1.478;2023-01-26T08:22:43;8.80;91.00
23147;DHT22;11742;53.532;-1.478;2023-01-26T08:25:08;8.80;91.00
23147;DHT22;11742;53.532;-1.478;2023-01-26T08:27:34;8.90;91.00
23147;DHT22;11742;53.532;-1.478;2023-01-26T08:29:59;8.90;91.00
23147;DHT22;11742;53.532;-1.478;2023-01-26T08:32:25;8.90;91.00
23147;DHT22;11742;53.532;-1.478;2023-01-26T08:34:50;8.90;91.10
23147;DHT22;11742;53.532;-1.478;2023-01-26T08:37:16;8.90;91.10
23147;DHT22;11742;53.532;-1.478;2023-01-26T08:39:41;8.90;91.10
23147;DHT22;11742;53.532;-1.478;2023-01-26T08:42:07;8.90;91.10
23147;DHT22;11742;53.532;-1.478;2023-01-26T08:44:32;8.90;91.10
23147;DHT22;11742;53.532;-1.478;2023-01-26T08:46:58;8.90;91.50
23147;DHT22;11742;53.532;-1.478;2023-01-26T08:49:24;8.90;91.20
23147;DHT22;11742;53.532;-1.478;2023-01-26T08:51:49;8.90;91.20
23147;DHT22;11742;53.532;-1.478;2023-01-26T08:54:15;8.90;91.20
23147;DHT22;11742;53.532;-1.478;2023-01-26T08:56:40;8.90;91.20
23147;DHT22;11742;53.532;-1.478;2023-01-26T08:59:06;9.00;91.20
23147;DHT22;11742;53.532;-1.478;2023-01-26T09:01:31;9.00;91.20
23147;DHT22;11742;53.532;-1.478;2023-01-26T09:03:57;9.00;91.30
23147;DHT22;11742;53.532;-1.478;2023-01-26T09:06:23;9.00;91.30
23147;DHT22;11742;53.532;-1.478;2023-01-26T09:08:48;9.00;91.30
23147;DHT22;11742;53.532;-1.478;2023-01-26T09:11:14;9.00;91.30
23147;DHT22;11742;53.532;-1.478;2023-01-26T09:13:40;9.00;91.30
23147;DHT22;11742;53.532;-1.478;2023-01-26T09:16:06;9.00;91.30
23147;DHT22;11742;53.532;-1.478;2023-01-26T09:18:32;9.00;91.40
23147;DHT22;11742;53.532;-1.478;2023-01-26T09:21:04;9.00;91.40
23147;DHT22;11742;53.532;-1.478;2023-01-26T09:23:30;9.00;91.50
23147;DHT22;11742;53.532;-1.478;2023-01-26T09:25:56;9.00;91.50
23147;DHT22;11742;53.532;-1.478;2023-01-26T09:28:21;9.00;91.50
23147;DHT22;11742;53.532;-1.478;2023-01-26T09:30:47;9.10;91.60
23147;DHT22;11742;53.532;-1.478;2023-01-26T09:33:13;9.10;91.60
23147;DHT22;11742;53.532;-1.478;2023-01-26T09:35:38;9.10;91.60
23147;DHT22;11742;53.532;-1.478;2023-01-26T09:38:04;9.10;91.60
23147;DHT22;11742;53.532;-1.478;2023-01-26T09:40:47;9.10;91.60
23147;DHT22;11742;53.532;-1.478;2023-01-26T09:46:03;9.10;91.70
23147;DHT22;11742;53.532;-1.478;2023-01-26T09:48:37;9.10;91.80
23147;DHT22;11742;53.532;-1.478;2023-01-26T09:51:17;9.10;91.80
23147;DHT22;11742;53.532;-1.478;2023-01-26T09:53:47;9.20;92.20
23147;DHT22;11742;53.532;-1.478;2023-01-26T09:56:17;9.20;91.80
23147;DHT22;11742;53.532;-1.478;2023-01-26T09:58:44;9.20;91.80
23147;DHT22;11742;53.532;-1.478;2023-01-26T10:01:19;9.20;91.80
23147;DHT22;11742;53.532;-1.478;2023-01-26T10:03:52;9.20;91.80
23147;DHT22;11742;53.532;-1.478;2023-01-26T10:08:45;9.30;92.30
23147;DHT22;11742;53.532;-1.478;2023-01-26T10:11:17;9.30;92.30
23147;DHT22;11742;53.532;-1.478;2023-01-26T10:13:46;9.30;92.00
23147;DHT22;11742;53.532;-1.478;2023-01-26T10:16:13;9.30;91.70
23147;DHT22;11742;53.532;-1.478;2023-01-26T10:18:44;9.40;91.70
23147;DHT22;11742;53.532;-1.478;2023-01-26T10:21:14;9.40;91.80
23147;DHT22;11742;53.532;-1.478;2023-01-26T10:23:42;9.40;92.10
23147;DHT22;11742;53.532;-1.478;2023-01-26T10:26:12;9.50;92.30
23147;DHT22;11742;53.532;-1.478;2023-01-26T10:28:40;9.50;92.30
23147;DHT22;11742;53.532;-1.478;2023-01-26T10:31:11;9.50;92.30
23147;DHT22;11742;53.532;-1.478;2023-01-26T10:33:46;9.60;92.30
23147;DHT22;11742;53.532;-1.478;2023-01-26T10:36:13;9.60;92.40
23147;DHT22;11742;53.532;-1.478;2023-01-26T10:38:40;9.60;92.30
23147;DHT22;11742;53.532;-1.478;2023-01-26T10:41:20;9.60;92.30
23147;DHT22;11742;53.532;-1.478;2023-01-26T10:44:00;9.60;92.20
23147;DHT22;11742;53.532;-1.478;2023-01-26T10:48:56;9.70;93.00
23147;DHT22;11742;53.532;-1.478;2023-01-26T10:51:24;9.70;93.00
23147;DHT22;11742;53.532;-1.478;2023-01-26T10:53:49;9.60;92.90
23147;DHT22;11742;53.532;-1.478;2023-01-26T10:56:15;9.70;92.90
23147;DHT22;11742;53.532;-1.478;2023-01-26T11:01:10;9.70;92.80
23147;DHT22;11742;53.532;-1.478;2023-01-26T11:03:40;9.70;92.80
23147;DHT22;11742;53.532;-1.478;2023-01-26T11:06:13;9.70;92.80
23147;DHT22;11742;53.532;-1.478;2023-01-26T11:08:39;9.70;93.10
23147;DHT22;11742;53.532;-1.478;2023-01-26T11:11:05;9.70;92.80
23147;DHT22;11742;53.532;-1.478;2023-01-26T11:13:35;9.70;92.80
23147;DHT22;11742;53.532;-1.478;2023-01-26T11:16:14;9.70;92.80
23147;DHT22;11742;53.532;-1.478;2023-01-26T11:21:25;9.80;92.80
23147;DHT22;11742;53.532;-1.478;2023-01-26T11:23:59;9.70;92.70
23147;DHT22;11742;53.532;-1.478;2023-01-26T11:29:06;9.80;93.60
23147;DHT22;11742;53.532;-1.478;2023-01-26T11:31:54;9.80;93.50
23147;DHT22;11742;53.532;-1.478;2023-01-26T11:34:28;9.80;93.50
23147;DHT22;11742;53.532;-1.478;2023-01-26T11:39:45;9.80;93.40
23147;DHT22;11742;53.532;-1.478;2023-01-26T11:42:26;9.80;93.40
23147;DHT22;11742;53.532;-1.478;2023-01-26T11:47:24;9.90;93.40
23147;DHT22;11742;53.532;-1.478;2023-01-26T11:52:30;9.90;93.30
23147;DHT22;11742;53.532;-1.478;2023-01-26T11:57:44;9.90;93.30
23147;DHT22;11742;53.532;-1.478;2023-01-26T12:02:40;9.90;93.30
23147;DHT22;11742;53.532;-1.478;2023-01-26T12:05:21;9.90;93.30
23147;DHT22;11742;53.532;-1.478;2023-01-26T12:07:50;10.00;93.40
23147;DHT22;11742;53.532;-1.478;2023-01-26T12:10:32;9.90;93.30
23147;DHT22;11742;53.532;-1.478;2023-01-26T12:15:37;10.00;93.20
23147;DHT22;11742;53.532;-1.478;2023-01-26T12:23:32;10.10;93.20
23147;DHT22;11742;53.532;-1.478;2023-01-26T12:26:10;10.00;93.10
23147;DHT22;11742;53.532;-1.478;2023-01-26T12:28:38;10.10;93.10
23147;DHT22;11742;53.532;-1.478;2023-01-26T12:33:44;10.10;93.40
23147;DHT22;11742;53.532;-1.478;2023-01-26T12:44:02;10.20;93.20
23147;DHT22;11742;53.532;-1.478;2023-01-26T12:46:33;10.30;93.20
23147;DHT22;11742;53.532;-1.478;2023-01-26T12:49:03;10.30;93.30
23147;DHT22;11742;53.532;-1.478;2023-01-26T12:51:38;10.40;93.20
23147;DHT22;11742;53.532;-1.478;2023-01-26T12:54:28;10.40;93.20
23147;DHT22;11742;53.532;-1.478;2023-01-26T12:56:52;10.40;93.20
23147;DHT22;11742;53.532;-1.478;2023-01-26T12:59:32;10.50;93.20
23147;DHT22;11742;53.532;-1.478;2023-01-26T13:01:59;10.50;93.00
23147;DHT22;11742;53.532;-1.478;2023-01-26T13:04:25;10.50;92.90
23147;DHT22;11742;53.532;-1.478;2023-01-26T13:07:00;10.60;93.00
23147;DHT22;11742;53.532;-1.478;2023-01-26T13:09:25;10.60;92.90
23147;DHT22;11742;53.532;-1.478;2023-01-26T13:11:52;10.70;92.90
23147;DHT22;11742;53.532;-1.478;2023-01-26T13:22:53;10.80;92.70
23147;DHT22;11742;53.532;-1.478;2023-01-26T13:24:58;10.80;92.60
23147;DHT22;11742;53.532;-1.478;2023-01-26T13:27:27;10.90;92.50
23147;DHT22;11742;53.532;-1.478;2023-01-26T13:29:54;10.90;92.50
23147;DHT22;11742;53.532;-1.478;2023-01-26T13:34:47;10.90;92.30
23147;DHT22;11742;53.532;-1.478;2023-01-26T13:37:15;10.90;92.40
23147;DHT22;11742;53.532;-1.478;2023-01-26T13:39:44;10.90;92.40
23147;DHT22;11742;53.532;-1.478;2023-01-26T13:42:17;10.90;92.30
23147;DHT22;11742;53.532;-1.478;2023-01-26T13:44:45;10.90;92.20
23147;DHT22;11742;53.532;-1.478;2023-01-26T13:47:15;11.00;92.20
23147;DHT22;11742;53.532;-1.478;2023-01-26T13:49:42;11.00;92.20
23147;DHT22;11742;53.532;-1.478;2023-01-26T13:52:23;11.00;92.20
23147;DHT22;11742;53.532;-1.478;2023-01-26T13:54:50;11.00;92.10
23147;DHT22;11742;53.532;-1.478;2023-01-26T13:57:23;11.00;92.10
23147;DHT22;11742;53.532;-1.478;2023-01-26T13:59:49;11.00;92.00
23147;DHT22;11742;53.532;-1.478;2023-01-26T14:02:48;11.00;92.00
23147;DHT22;11742;53.532;-1.478;2023-01-26T14:05:19;11.00;92.00
23147;DHT22;11742;53.532;-1.478;2023-01-26T14:07:44;11.00;92.00
23147;DHT22;11742;53.532;-1.478;2023-01-26T14:10:19;11.00;91.90
23147;DHT22;11742;53.532;-1.478;2023-01-26T14:12:46;11.10;92.00
23147;DHT22;11742;53.532;-1.478;2023-01-26T14:15:28;11.10;91.90
23147;DHT22;11742;53.532;-1.478;2023-01-26T14:17:59;11.10;91.90
23147;DHT22;11742;53.532;-1.478;2023-01-26T14:20:33;11.10;91.90
23147;DHT22;11742;53.532;-1.478;2023-01-26T14:25:32;11.10;91.80
23147;DHT22;11742;53.532;-1.478;2023-01-26T14:27:58;11.00;91.70
23147;DHT22;11742;53.532;-1.478;2023-01-26T14:30:25;11.10;91.70
23147;DHT22;11742;53.532;-1.478;2023-01-26T14:32:59;11.10;91.70
23147;DHT22;11742;53.532;-1.478;2023-01-26T14:35:25;11.10;91.50
23147;DHT22;11742;53.532;-1.478;2023-01-26T14:38:03;11.10;91.70
23147;DHT22;11742;53.532;-1.478;2023-01-26T14:40:29;11.00;91.80
23147;DHT22;11742;53.532;-1.478;2023-01-26T14:42:55;11.00;91.80
23147;DHT22;11742;53.532;-1.478;2023-01-26T14:45:30;11.00;91.70
23147;DHT22;11742;53.532;-1.478;2023-01-26T14:48:00;11.00;91.70
23147;DHT22;11742;53.532;-1.478;2023-01-26T14:50:27;11.00;91.70
23147;DHT22;11742;53.532;-1.478;2023-01-26T14:52:55;11.00;92.00
23147;DHT22;11742;53.532;-1.478;2023-01-26T14:55:23;11.00;91.70
23147;DHT22;11742;53.532;-1.478;2023-01-26T14:57:48;11.00;91.70
23147;DHT22;11742;53.532;-1.478;2023-01-26T15:00:26;11.00;91.70
23147;DHT22;11742;53.532;-1.478;2023-01-26T15:02:53;11.00;91.60
23147;DHT22;11742;53.532;-1.478;2023-01-26T15:05:20;11.00;91.60
23147;DHT22;11742;53.532;-1.478;2023-01-26T15:15:39;11.00;91.60
23147;DHT22;11742;53.532;-1.478;2023-01-26T15:18:20;11.00;91.60
23147;DHT22;11742;53.532;-1.478;2023-01-26T15:20:56;11.00;91.50
23147;DHT22;11742;53.532;-1.478;2023-01-26T15:25:50;11.00;91.50
23147;DHT22;11742;53.532;-1.478;2023-01-26T15:28:16;11.00;91.50
23147;DHT22;11742;53.532;-1.478;2023-01-26T15:30:45;11.00;91.40
23147;DHT22;11742;53.532;-1.478;2023-01-26T15:35:56;11.00;91.10
23147;DHT22;11742;53.532;-1.478;2023-01-26T15:38:22;10.90;91.40
23147;DHT22;11742;53.532;-1.478;2023-01-26T15:40:47;10.90;91.40
23147;DHT22;11742;53.532;-1.478;2023-01-26T15:43:17;10.90;91.40
23147;DHT22;11742;53.532;-1.478;2023-01-26T15:45:49;10.90;91.40
23147;DHT22;11742;53.532;-1.478;2023-01-26T15:48:14;10.90;91.40
23147;DHT22;11742;53.532;-1.478;2023-01-26T15:50:40;10.90;91.70
23147;DHT22;11742;53.532;-1.478;2023-01-26T15:53:08;10.90;90.30
23147;DHT22;11742;53.532;-1.478;2023-01-26T15:55:35;10.80;90.00
23147;DHT22;11742;53.532;-1.478;2023-01-26T15:58:00;10.70;90.10
23147;DHT22;11742;53.532;-1.478;2023-01-26T16:00:26;10.50;90.50
23147;DHT22;11742;53.532;-1.478;2023-01-26T16:02:51;10.50;90.40
23147;DHT22;11742;53.532;-1.478;2023-01-26T16:05:18;10.30;90.50
23147;DHT22;11742;53.532;-1.478;2023-01-26T16:07:44;10.30;90.90
23147;DHT22;11742;53.532;-1.478;2023-01-26T16:10:10;10.20;91.20
23147;DHT22;11742;53.532;-1.478;2023-01-26T16:12:36;10.10;91.60
23147;DHT22;11742;53.532;-1.478;2023-01-26T16:15:01;10.20;91.70
23147;DHT22;11742;53.532;-1.478;2023-01-26T16:17:27;10.20;91.70
23147;DHT22;11742;53.532;-1.478;2023-01-26T16:19:53;10.30;91.70
23147;DHT22;11742;53.532;-1.478;2023-01-26T16:22:18;10.30;91.70
23147;DHT22;11742;53.532;-1.478;2023-01-26T16:24:45;10.40;91.60
23147;DHT22;11742;53.532;-1.478;2023-01-26T16:27:10;10.40;91.60
23147;DHT22;11742;53.532;-1.478;2023-01-26T16:29:36;10.40;91.50
23147;DHT22;11742;53.532;-1.478;2023-01-26T16:32:01;10.40;91.50
23147;DHT22;11742;53.532;-1.478;2023-01-26T16:34:32;10.50;91.50
23147;DHT22;11742;53.532;-1.478;2023-01-26T16:36:58;10.50;91.40
23147;DHT22;11742;53.532;-1.478;2023-01-26T16:39:23;10.50;91.40
23147;DHT22;11742;53.532;-1.478;2023-01-26T16:41:49;10.50;91.30
23147;DHT22;11742;53.532;-1.478;2023-01-26T16:44:15;10.50;91.30
23147;DHT22;11742;53.532;-1.478;2023-01-26T16:46:43;10.50;91.20
23147;DHT22;11742;53.532;-1.478;2023-01-26T16:49:13;10.60;91.20
23147;DHT22;11742;53.532;-1.478;2023-01-26T16:51:40;10.60;91.10
23147;DHT22;11742;53.532;-1.478;2023-01-26T16:54:07;10.60;91.00
23147;DHT22;11742;53.532;-1.478;2023-01-26T16:56:33;10.60;91.00
23147;DHT22;11742;53.532;-1.478;2023-01-26T16:58:58;10.60;91.00